THY6805 LTAC-LTAI
Flight info
| Callsign | THY6805 |
|---|---|
| Flight time | N/A |
| Altitude | 30000 |
| Route | LTAC/21R N0453F320 HALI1D HALIL UR32 KFK UA16 KUMRU KUMR1R LTAI/36C |
| Aircraft | B738/M-CDT/C |
Departure
| Time | 2026-05-07 17:36 |
|---|---|
| Airport | Esenboğa International Airport (LTAC) |
Arrival
| Time | N/A |
|---|---|
| Airport | Antalya International Airport (LTAI) |
| Time | Latitude | Longitude | Altitude | Speed | Heading |
|---|---|---|---|---|---|
| 2026-05-07 17:21 | 40.11648 | 32.99168 | 3112 ft | 0 kts | 150° |
| 2026-05-07 17:29 | 40.11647 | 32.99168 | 3112 ft | 0 kts | 155° |
| 2026-05-07 17:29 | 40.11645 | 32.99166 | 3112 ft | 1 kts | 193° |
| 2026-05-07 17:30 | 40.11644 | 32.99158 | 3112 ft | 1 kts | 261° |
| 2026-05-07 17:30 | 40.11643 | 32.99120 | 3112 ft | 7 kts | 281° |
| 2026-05-07 17:30 | 40.11692 | 32.99100 | 3112 ft | 10 kts | 359° |
| 2026-05-07 17:30 | 40.11778 | 32.99077 | 3112 ft | 15 kts | 332° |
| 2026-05-07 17:31 | 40.11885 | 32.99079 | 3113 ft | 19 kts | 33° |
| 2026-05-07 17:31 | 40.12000 | 32.99187 | 3114 ft | 22 kts | 36° |
| 2026-05-07 17:31 | 40.12132 | 32.99314 | 3116 ft | 25 kts | 37° |
| 2026-05-07 17:31 | 40.12274 | 32.99453 | 3118 ft | 25 kts | 37° |
| 2026-05-07 17:32 | 40.12409 | 32.99580 | 3119 ft | 23 kts | 36° |
| 2026-05-07 17:32 | 40.12537 | 32.99701 | 3121 ft | 22 kts | 36° |
| 2026-05-07 17:32 | 40.12661 | 32.99820 | 3122 ft | 22 kts | 37° |
| 2026-05-07 17:32 | 40.12741 | 32.99897 | 3122 ft | 21 kts | 37° |
| 2026-05-07 17:33 | 40.12899 | 33.00051 | 3122 ft | 22 kts | 36° |
| 2026-05-07 17:33 | 40.13027 | 33.00170 | 3124 ft | 23 kts | 35° |
| 2026-05-07 17:33 | 40.13164 | 33.00299 | 3125 ft | 25 kts | 36° |
| 2026-05-07 17:33 | 40.13298 | 33.00425 | 3126 ft | 23 kts | 36° |
| 2026-05-07 17:34 | 40.13421 | 33.00549 | 3129 ft | 22 kts | 36° |
| 2026-05-07 17:34 | 40.13546 | 33.00665 | 3131 ft | 22 kts | 36° |
| 2026-05-07 17:34 | 40.13668 | 33.00780 | 3132 ft | 21 kts | 36° |
| 2026-05-07 17:34 | 40.13786 | 33.00893 | 3133 ft | 21 kts | 36° |
| 2026-05-07 17:35 | 40.13903 | 33.01005 | 3134 ft | 21 kts | 36° |
| 2026-05-07 17:35 | 40.14039 | 33.01069 | 3135 ft | 21 kts | 344° |
| 2026-05-07 17:35 | 40.14099 | 33.00915 | 3135 ft | 21 kts | 248° |
| 2026-05-07 17:35 | 40.13970 | 33.00770 | 3134 ft | 44 kts | 216° |
| 2026-05-07 17:36 | 40.13532 | 33.00354 | 3129 ft | 110 kts | 216° |
| 2026-05-07 17:36 | 40.12757 | 32.99597 | 3123 ft | 165 kts | 217° |
| 2026-05-07 17:36 | 40.11790 | 32.98629 | 3560 ft | 181 kts | 218° |
| 2026-05-07 17:36 | 40.10775 | 32.97611 | 4261 ft | 185 kts | 218° |
| 2026-05-07 17:37 | 40.09763 | 32.96628 | 4842 ft | 183 kts | 216° |
| 2026-05-07 17:37 | 40.08724 | 32.95644 | 5221 ft | 185 kts | 217° |
| 2026-05-07 17:37 | 40.07688 | 32.94652 | 5605 ft | 188 kts | 217° |
| 2026-05-07 17:37 | 40.06627 | 32.93629 | 5985 ft | 191 kts | 217° |
| 2026-05-07 17:38 | 40.05547 | 32.92581 | 6371 ft | 195 kts | 217° |
| 2026-05-07 17:38 | 40.04435 | 32.91499 | 6779 ft | 205 kts | 217° |
| 2026-05-07 17:38 | 40.03264 | 32.90358 | 7180 ft | 215 kts | 217° |
| 2026-05-07 17:38 | 40.01961 | 32.89323 | 7552 ft | 225 kts | 198° |
| 2026-05-07 17:39 | 40.00387 | 32.89100 | 7962 ft | 234 kts | 175° |
| 2026-05-07 17:39 | 39.98795 | 32.89660 | 8336 ft | 244 kts | 153° |
| 2026-05-07 17:39 | 39.97320 | 32.90854 | 8717 ft | 255 kts | 146° |
| 2026-05-07 17:39 | 39.95831 | 32.92228 | 9092 ft | 269 kts | 145° |
| 2026-05-07 17:40 | 39.94275 | 32.93663 | 9668 ft | 279 kts | 145° |
| 2026-05-07 17:40 | 39.92655 | 32.95134 | 10240 ft | 288 kts | 146° |
| 2026-05-07 17:40 | 39.90968 | 32.96652 | 10606 ft | 307 kts | 147° |
| 2026-05-07 17:40 | 39.88945 | 32.97779 | 10767 ft | 329 kts | 171° |
| 2026-05-07 17:41 | 39.86586 | 32.97826 | 10973 ft | 350 kts | 185° |
| 2026-05-07 17:41 | 39.84109 | 32.97561 | 11385 ft | 362 kts | 185° |
| 2026-05-07 17:41 | 39.81570 | 32.97304 | 11984 ft | 368 kts | 184° |
| 2026-05-07 17:41 | 39.79056 | 32.96718 | 12626 ft | 371 kts | 201° |
| 2026-05-07 17:42 | 39.76844 | 32.95090 | 13282 ft | 372 kts | 220° |
| 2026-05-07 17:42 | 39.74989 | 32.92739 | 13962 ft | 374 kts | 226° |
| 2026-05-07 17:42 | 39.73196 | 32.90273 | 14552 ft | 378 kts | 227° |
| 2026-05-07 17:42 | 39.71380 | 32.87768 | 15156 ft | 382 kts | 226° |
| 2026-05-07 17:43 | 39.69535 | 32.85267 | 15796 ft | 384 kts | 226° |
| 2026-05-07 17:43 | 39.67668 | 32.82770 | 16413 ft | 387 kts | 226° |
| 2026-05-07 17:43 | 39.65778 | 32.80256 | 16998 ft | 390 kts | 226° |
| 2026-05-07 17:43 | 39.63876 | 32.77728 | 17562 ft | 393 kts | 226° |
| 2026-05-07 17:44 | 39.61959 | 32.75183 | 18114 ft | 397 kts | 226° |
| 2026-05-07 17:44 | 39.60018 | 32.72605 | 18646 ft | 400 kts | 226° |
| 2026-05-07 17:44 | 39.58067 | 32.70015 | 19166 ft | 404 kts | 226° |
| 2026-05-07 17:44 | 39.56094 | 32.67397 | 19670 ft | 407 kts | 226° |
| 2026-05-07 17:45 | 39.54103 | 32.64757 | 20165 ft | 410 kts | 226° |
| 2026-05-07 17:45 | 39.52102 | 32.62105 | 20648 ft | 414 kts | 226° |
| 2026-05-07 17:45 | 39.50081 | 32.59430 | 21098 ft | 417 kts | 226° |
| 2026-05-07 17:45 | 39.48045 | 32.56737 | 21555 ft | 420 kts | 226° |
| 2026-05-07 17:46 | 39.45992 | 32.54025 | 22015 ft | 422 kts | 226° |
| 2026-05-07 17:46 | 39.44016 | 32.51274 | 22417 ft | 425 kts | 233° |
| 2026-05-07 17:46 | 39.42597 | 32.47864 | 22791 ft | 428 kts | 249° |
| 2026-05-07 17:46 | 39.41595 | 32.44296 | 23231 ft | 429 kts | 250° |
| 2026-05-07 17:47 | 39.40557 | 32.40665 | 23615 ft | 432 kts | 249° |
| 2026-05-07 17:47 | 39.39183 | 32.37217 | 23947 ft | 435 kts | 232° |
| 2026-05-07 17:47 | 39.37033 | 32.34455 | 24350 ft | 437 kts | 215° |
| 2026-05-07 17:47 | 39.34395 | 32.32503 | 24770 ft | 438 kts | 207° |
| 2026-05-07 17:48 | 39.31657 | 32.30734 | 25094 ft | 442 kts | 206° |
| 2026-05-07 17:48 | 39.28884 | 32.28988 | 25412 ft | 445 kts | 206° |
| 2026-05-07 17:48 | 39.26094 | 32.27234 | 25767 ft | 447 kts | 206° |
| 2026-05-07 17:48 | 39.23294 | 32.25460 | 26110 ft | 448 kts | 206° |
| 2026-05-07 17:49 | 39.20493 | 32.23667 | 26439 ft | 450 kts | 207° |
| 2026-05-07 17:49 | 39.17683 | 32.21856 | 26734 ft | 453 kts | 207° |
| 2026-05-07 17:49 | 39.14859 | 32.20029 | 27032 ft | 455 kts | 207° |
| 2026-05-07 17:49 | 39.12019 | 32.18187 | 27324 ft | 457 kts | 207° |
| 2026-05-07 17:50 | 39.09170 | 32.16340 | 27590 ft | 460 kts | 207° |
| 2026-05-07 17:50 | 39.06340 | 32.14506 | 27860 ft | 461 kts | 207° |
| 2026-05-07 17:50 | 39.03468 | 32.12647 | 28171 ft | 462 kts | 207° |
| 2026-05-07 17:50 | 39.00598 | 32.10791 | 28559 ft | 461 kts | 207° |
| 2026-05-07 17:51 | 38.97739 | 32.08945 | 28971 ft | 459 kts | 207° |
| 2026-05-07 17:51 | 38.94887 | 32.07106 | 29351 ft | 458 kts | 207° |
| 2026-05-07 17:51 | 38.92040 | 32.05271 | 29692 ft | 458 kts | 207° |
| 2026-05-07 17:51 | 38.89193 | 32.03438 | 29993 ft | 459 kts | 207° |
| 2026-05-07 17:52 | 38.84422 | 32.00370 | 30002 ft | 462 kts | 207° |
| 2026-05-07 17:52 | 38.78699 | 31.96696 | 29990 ft | 457 kts | 207° |
| 2026-05-07 17:53 | 38.73018 | 31.93055 | 30006 ft | 457 kts | 207° |
| 2026-05-07 17:53 | 38.67329 | 31.89416 | 30001 ft | 457 kts | 207° |
| 2026-05-07 17:54 | 38.61626 | 31.85774 | 29999 ft | 458 kts | 207° |
| 2026-05-07 17:54 | 38.55913 | 31.82133 | 29999 ft | 459 kts | 207° |
| 2026-05-07 17:55 | 38.50193 | 31.78493 | 30015 ft | 460 kts | 206° |
| 2026-05-07 17:55 | 38.44465 | 31.74855 | 29902 ft | 460 kts | 206° |
| 2026-05-07 17:56 | 38.41601 | 31.73038 | 29491 ft | 459 kts | 206° |
| 2026-05-07 17:56 | 38.38765 | 31.71241 | 29120 ft | 453 kts | 206° |
| 2026-05-07 17:56 | 38.35983 | 31.69479 | 28741 ft | 448 kts | 206° |
| 2026-05-07 17:56 | 38.33202 | 31.67720 | 28378 ft | 445 kts | 206° |
| 2026-05-07 17:57 | 38.30439 | 31.65973 | 27995 ft | 443 kts | 206° |
| 2026-05-07 17:57 | 38.27684 | 31.64232 | 27626 ft | 440 kts | 206° |
| 2026-05-07 17:57 | 38.24946 | 31.62505 | 27253 ft | 438 kts | 206° |
| 2026-05-07 17:57 | 38.22227 | 31.60790 | 26889 ft | 436 kts | 206° |
| 2026-05-07 17:58 | 38.19511 | 31.59077 | 26506 ft | 435 kts | 206° |
| 2026-05-07 17:58 | 38.16804 | 31.57373 | 26130 ft | 433 kts | 206° |
| 2026-05-07 17:58 | 38.14108 | 31.55678 | 25755 ft | 432 kts | 206° |
| 2026-05-07 17:58 | 38.11497 | 31.53810 | 25371 ft | 430 kts | 214° |
| 2026-05-07 17:59 | 38.09159 | 31.51448 | 24994 ft | 429 kts | 222° |
| 2026-05-07 17:59 | 38.06975 | 31.48890 | 24635 ft | 427 kts | 223° |
| 2026-05-07 17:59 | 38.04817 | 31.46322 | 24262 ft | 424 kts | 223° |
| 2026-05-07 17:59 | 38.02671 | 31.43767 | 23887 ft | 422 kts | 223° |
| 2026-05-07 18:00 | 38.00532 | 31.41236 | 23507 ft | 420 kts | 223° |
| 2026-05-07 18:00 | 37.98403 | 31.38734 | 23138 ft | 417 kts | 223° |
| 2026-05-07 18:00 | 37.96278 | 31.36249 | 22767 ft | 414 kts | 223° |
| 2026-05-07 18:00 | 37.94164 | 31.33788 | 22383 ft | 410 kts | 223° |
| 2026-05-07 18:01 | 37.92069 | 31.31353 | 22010 ft | 407 kts | 223° |
| 2026-05-07 18:01 | 37.89990 | 31.28942 | 21632 ft | 405 kts | 223° |
| 2026-05-07 18:01 | 37.87917 | 31.26540 | 21253 ft | 403 kts | 223° |
| 2026-05-07 18:01 | 37.85853 | 31.24150 | 20879 ft | 401 kts | 223° |
| 2026-05-07 18:02 | 37.81753 | 31.19406 | 20134 ft | 398 kts | 223° |
| 2026-05-07 18:02 | 37.79716 | 31.17052 | 19752 ft | 396 kts | 223° |
| 2026-05-07 18:02 | 37.77686 | 31.14707 | 19384 ft | 394 kts | 223° |
| 2026-05-07 18:03 | 37.75664 | 31.12374 | 19016 ft | 392 kts | 223° |
| 2026-05-07 18:03 | 37.73685 | 31.10092 | 18644 ft | 389 kts | 223° |
| 2026-05-07 18:03 | 37.71685 | 31.07788 | 18260 ft | 387 kts | 223° |
| 2026-05-07 18:03 | 37.69703 | 31.05507 | 17893 ft | 384 kts | 223° |
| 2026-05-07 18:04 | 37.67738 | 31.03246 | 17521 ft | 382 kts | 223° |
| 2026-05-07 18:04 | 37.65781 | 31.00997 | 17153 ft | 379 kts | 223° |
| 2026-05-07 18:04 | 37.63835 | 30.98761 | 16769 ft | 376 kts | 223° |
| 2026-05-07 18:04 | 37.61907 | 30.96547 | 16393 ft | 374 kts | 223° |
| 2026-05-07 18:05 | 37.59991 | 30.94350 | 16020 ft | 372 kts | 222° |
| 2026-05-07 18:05 | 37.58079 | 30.92157 | 15645 ft | 370 kts | 222° |
| 2026-05-07 18:05 | 37.56177 | 30.89979 | 15269 ft | 367 kts | 222° |
| 2026-05-07 18:05 | 37.54290 | 30.87819 | 14906 ft | 365 kts | 222° |
| 2026-05-07 18:06 | 37.52455 | 30.85720 | 14636 ft | 357 kts | 222° |
| 2026-05-07 18:06 | 37.50637 | 30.83641 | 14378 ft | 349 kts | 222° |
| 2026-05-07 18:06 | 37.48861 | 30.81611 | 14123 ft | 342 kts | 222° |
| 2026-05-07 18:06 | 37.47116 | 30.79619 | 13867 ft | 335 kts | 222° |
| 2026-05-07 18:07 | 37.45405 | 30.77668 | 13611 ft | 329 kts | 222° |
| 2026-05-07 18:07 | 37.43722 | 30.75749 | 13355 ft | 323 kts | 222° |
| 2026-05-07 18:07 | 37.41906 | 30.74143 | 13069 ft | 319 kts | 203° |
| 2026-05-07 18:07 | 37.39782 | 30.73512 | 12827 ft | 313 kts | 181° |
| 2026-05-07 18:08 | 37.37622 | 30.73674 | 12598 ft | 308 kts | 174° |
| 2026-05-07 18:08 | 37.35504 | 30.73967 | 12348 ft | 304 kts | 174° |
| 2026-05-07 18:08 | 37.33426 | 30.74265 | 12144 ft | 298 kts | 174° |
| 2026-05-07 18:08 | 37.31381 | 30.74542 | 11940 ft | 293 kts | 174° |
| 2026-05-07 18:09 | 37.29371 | 30.74802 | 11717 ft | 288 kts | 174° |
| 2026-05-07 18:09 | 37.27388 | 30.75052 | 11529 ft | 285 kts | 174° |
| 2026-05-07 18:09 | 37.25426 | 30.75297 | 11329 ft | 283 kts | 175° |
| 2026-05-07 18:09 | 37.23489 | 30.75448 | 11134 ft | 281 kts | 178° |
| 2026-05-07 18:10 | 37.21541 | 30.75525 | 10920 ft | 279 kts | 179° |
| 2026-05-07 18:10 | 37.19602 | 30.75587 | 10732 ft | 278 kts | 179° |
| 2026-05-07 18:10 | 37.17670 | 30.75649 | 10533 ft | 277 kts | 179° |
| 2026-05-07 18:10 | 37.15754 | 30.75714 | 10334 ft | 276 kts | 179° |
| 2026-05-07 18:11 | 37.13829 | 30.75783 | 10130 ft | 275 kts | 179° |
| 2026-05-07 18:11 | 37.12537 | 30.75830 | 10005 ft | 275 kts | 179° |
| 2026-05-07 18:11 | 37.10004 | 30.75925 | 9735 ft | 275 kts | 179° |
| 2026-05-07 18:11 | 37.08092 | 30.75999 | 9537 ft | 275 kts | 179° |
| 2026-05-07 18:12 | 37.06183 | 30.76073 | 9338 ft | 275 kts | 179° |
| 2026-05-07 18:12 | 37.04272 | 30.76147 | 9139 ft | 274 kts | 179° |
| 2026-05-07 18:12 | 37.02365 | 30.76222 | 8936 ft | 272 kts | 179° |
| 2026-05-07 18:12 | 37.00486 | 30.76296 | 8726 ft | 268 kts | 179° |
| 2026-05-07 18:13 | 36.98638 | 30.76368 | 8521 ft | 264 kts | 179° |
| 2026-05-07 18:13 | 36.96821 | 30.76440 | 8315 ft | 260 kts | 179° |
| 2026-05-07 18:13 | 36.95027 | 30.76510 | 8108 ft | 256 kts | 179° |
| 2026-05-07 18:13 | 36.93261 | 30.76580 | 7913 ft | 252 kts | 179° |
| 2026-05-07 18:14 | 36.91542 | 30.76648 | 7702 ft | 249 kts | 179° |
| 2026-05-07 18:14 | 36.89819 | 30.76715 | 7486 ft | 245 kts | 179° |
| 2026-05-07 18:14 | 36.88125 | 30.76782 | 7297 ft | 240 kts | 179° |
| 2026-05-07 18:14 | 36.86490 | 30.76846 | 7050 ft | 230 kts | 179° |
| 2026-05-07 18:15 | 36.84931 | 30.76907 | 6787 ft | 219 kts | 179° |
| 2026-05-07 18:15 | 36.83443 | 30.76966 | 6517 ft | 209 kts | 179° |
| 2026-05-07 18:15 | 36.82018 | 30.77022 | 6250 ft | 201 kts | 179° |
| 2026-05-07 18:15 | 36.80648 | 30.77076 | 5979 ft | 193 kts | 179° |
| 2026-05-07 18:16 | 36.79330 | 30.77127 | 5729 ft | 187 kts | 179° |
| 2026-05-07 18:16 | 36.78032 | 30.77178 | 5439 ft | 186 kts | 179° |
| 2026-05-07 18:16 | 36.76743 | 30.77228 | 5134 ft | 185 kts | 179° |
| 2026-05-07 18:16 | 36.75480 | 30.77274 | 4834 ft | 183 kts | 181° |
| 2026-05-07 18:17 | 36.74217 | 30.77151 | 4532 ft | 181 kts | 187° |
| 2026-05-07 18:17 | 36.72968 | 30.76970 | 4230 ft | 180 kts | 187° |
| 2026-05-07 18:17 | 36.71730 | 30.76792 | 3929 ft | 179 kts | 187° |
| 2026-05-07 18:17 | 36.70505 | 30.76626 | 3622 ft | 174 kts | 182° |
| 2026-05-07 18:18 | 36.69419 | 30.77097 | 3338 ft | 162 kts | 136° |
| 2026-05-07 18:18 | 36.68912 | 30.78260 | 3107 ft | 155 kts | 101° |
| 2026-05-07 18:18 | 36.69025 | 30.79574 | 2823 ft | 154 kts | 65° |
| 2026-05-07 18:18 | 36.69717 | 30.80539 | 2533 ft | 149 kts | 30° |
| 2026-05-07 18:19 | 36.70687 | 30.80644 | 2312 ft | 144 kts | 329° |
| 2026-05-07 18:19 | 36.71434 | 30.79806 | 2258 ft | 148 kts | 317° |
| 2026-05-07 18:19 | 36.72216 | 30.78979 | 2156 ft | 146 kts | 320° |
| 2026-05-07 18:19 | 36.72906 | 30.78061 | 2064 ft | 146 kts | 299° |
| 2026-05-07 18:20 | 36.72961 | 30.76855 | 1949 ft | 145 kts | 240° |
| 2026-05-07 18:20 | 36.72126 | 30.76210 | 1932 ft | 146 kts | 197° |
| 2026-05-07 18:20 | 36.71351 | 30.75477 | 1818 ft | 145 kts | 249° |
| 2026-05-07 18:20 | 36.71524 | 30.74290 | 1813 ft | 146 kts | 313° |
| 2026-05-07 18:21 | 36.72445 | 30.73905 | 1826 ft | 146 kts | 360° |
| 2026-05-07 18:21 | 36.73464 | 30.73754 | 1795 ft | 148 kts | 354° |
| 2026-05-07 18:21 | 36.74370 | 30.74222 | 1725 ft | 148 kts | 54° |
| 2026-05-07 18:21 | 36.74495 | 30.75455 | 1751 ft | 148 kts | 102° |
| 2026-05-07 18:22 | 36.74366 | 30.76736 | 1701 ft | 150 kts | 82° |
| 2026-05-07 18:22 | 36.74686 | 30.77469 | 1652 ft | 147 kts | 37° |
| 2026-05-07 18:22 | 36.76005 | 30.77697 | 1681 ft | 148 kts | 359° |
| 2026-05-07 18:22 | 36.77032 | 30.77737 | 1642 ft | 147 kts | 2° |
| 2026-05-07 18:23 | 36.78050 | 30.77811 | 1621 ft | 147 kts | 4° |
| 2026-05-07 18:23 | 36.79063 | 30.77967 | 1593 ft | 147 kts | 9° |
| 2026-05-07 18:23 | 36.80061 | 30.78248 | 1564 ft | 147 kts | 15° |